Saint Petersburg Beach, Florida
Current Conditions -  °F | °C
As of 4:53 AM on Saturday 25 Oct 2014 (Local Time) from KSPG Reporting Station
Clear Clear  
Wind Chill: 67°   Ceiling: Unl
Heat Index: 67°   Visibility: 10mi
Dew Point: 59°   Wind: 8mph
Humidity: 76%   Direction: 350°N
Pressure: 29.95"   Gusts: NA
Location:  27.7254°N, 82.7422°W
Report Text: KSPG 250853Z AUTO 35007KT 10SM CLR 19/15 A2995 RMK AO2 SLP141 T01940150 55003
Loading
Personal Weather Stations






























Interactive Weather Map New forecast layout! Learn more

10-Day Weather Forecast

Advertisements
Track Severe Weather on mobile